Time;durP1;ratioP1;P1;durP2;ratioP2;P2;SDS_P1;SDS_P2;PMS_P1;PMS_P2;Temp;Humidity;BMP_temperature;BMP_pressure;BME280_temperature;BME280_humidity;BME280_pressure;Samples;Min_cycle;Max_cycle;Signal;HPM_P1;HPM_P2
2023/12/03 00:02:02;;;;;;;;;43.00;39.67;;;;;3.87;53.94;101651.72;4956223;28;45672;-76
2023/12/03 00:04:28;;;;;;;;;45.25;38.25;;;;;3.91;54.12;101661.13;4947288;28;45430;-78
2023/12/03 00:06:53;;;;;;;;;45.50;40.00;;;;;3.87;53.93;101659.59;4956341;28;45923;-77
2023/12/03 00:09:19;;;;;;;;;49.00;39.75;;;;;3.84;54.54;101662.41;4955559;28;45364;-75
2023/12/03 00:11:44;;;;;;;;;51.75;43.00;;;;;3.71;54.46;101642.91;4938110;28;45405;-76
2023/12/03 00:14:10;;;;;;;;;52.67;39.33;;;;;3.71;54.24;101645.53;4956808;28;45554;-76
2023/12/03 00:16:35;;;;;;;;;48.00;37.67;;;;;3.81;54.48;101667.81;4957926;28;45341;-76
2023/12/03 00:19:00;;;;;;;;;41.67;37.67;;;;;3.84;54.33;101672.06;4954741;28;45441;-76
2023/12/03 00:21:26;;;;;;;;;47.25;40.25;;;;;3.85;53.87;101669.34;4953725;28;45488;-77
2023/12/03 00:23:51;;;;;;;;;45.00;37.67;;;;;3.76;53.67;101653.19;4938892;28;45468;-76
2023/12/03 00:26:16;;;;;;;;;42.33;36.33;;;;;3.79;54.45;101656.50;4956954;28;45371;-77
2023/12/03 00:28:42;;;;;;;;;44.75;37.00;;;;;3.87;54.24;101671.91;4958750;28;45555;-78
2023/12/03 00:31:07;;;;;;;;;48.33;40.67;;;;;3.64;54.73;101638.88;4956480;28;45390;-78
2023/12/03 00:33:33;;;;;;;;;50.33;36.00;;;;;3.52;54.07;101619.31;4953873;28;45476;-76
2023/12/03 00:35:59;;;;;;;;;40.33;38.33;;;;;3.69;54.96;101646.53;4940428;28;46206;-76
2023/12/03 00:38:25;;;;;;;;;47.33;36.33;;;;;3.77;54.66;101660.97;4937147;28;45477;-77
2023/12/03 00:40:50;;;;;;;;;44.33;36.00;;;;;3.78;54.85;101662.69;4936794;28;45382;-77
2023/12/03 00:43:15;;;;;;;;;48.00;39.67;;;;;3.78;54.63;101661.84;4936404;28;45381;-78
2023/12/03 00:45:41;;;;;;;;;46.00;38.33;;;;;3.35;54.63;101596.50;4935686;28;45488;-79
2023/12/03 00:48:06;;;;;;;;;40.67;35.67;;;;;3.21;55.08;101577.97;4917520;28;45421;-77
2023/12/03 00:50:32;;;;;;;;;40.67;36.00;;;;;2.77;55.36;101513.63;4934573;28;45612;-78
2023/12/03 00:52:58;;;;;;;;;54.00;40.00;;;;;3.62;55.09;101646.00;4934413;28;45544;-78
2023/12/03 00:55:23;;;;;;;;;47.25;38.25;;;;;3.60;55.17;101643.47;4934095;28;45702;-80
2023/12/03 00:57:49;;;;;;;;;48.33;39.33;;;;;3.48;55.35;101633.53;4933948;28;45450;-76
2023/12/03 01:00:15;;;;;;;;;46.50;39.50;;;;;3.59;56.03;101654.88;4934101;28;46223;-78
2023/12/03 01:02:40;;;;;;;;;42.67;36.67;;;;;3.60;55.40;101655.72;4934421;28;45489;-80
2023/12/03 01:05:06;;;;;;;;;51.75;40.25;;;;;3.28;55.23;101602.16;4935124;28;45926;-79
2023/12/03 01:07:31;;;;;;;;;49.33;38.67;;;;;3.50;55.83;101646.59;4918581;28;45517;-77
2023/12/03 01:09:57;;;;;;;;;46.00;38.00;;;;;3.33;55.61;101627.25;4934715;28;45493;-79
2023/12/03 01:12:22;;;;;;;;;45.33;38.33;;;;;3.50;55.16;101655.34;4934700;28;45443;-79
2023/12/03 01:14:47;;;;;;;;;44.33;36.67;;;;;3.57;55.41;101648.00;4918721;28;46862;-77
2023/12/03 01:17:13;;;;;;;;;37.33;35.33;;;;;3.58;55.52;101655.81;4935555;28;45489;-77
2023/12/03 01:19:38;;;;;;;;;38.33;34.67;;;;;3.49;55.91;101644.91;4918878;28;45367;-76
2023/12/03 01:22:03;;;;;;;;;48.00;38.25;;;;;3.38;55.75;101613.03;4918452;28;45548;-76
2023/12/03 01:24:29;;;;;;;;;47.00;36.33;;;;;3.53;56.11;101651.72;4935379;28;46256;-81
2023/12/03 01:26:55;;;;;;;;;42.33;38.00;;;;;3.37;55.68;101635.84;4953305;28;45623;-80
2023/12/03 01:29:20;;;;;;;;;36.00;32.25;;;;;3.06;55.42;101578.72;4954583;28;45470;-78
2023/12/03 01:31:46;;;;;;;;;40.33;34.67;;;;;3.00;55.52;101568.47;4958614;28;45477;-78
2023/12/03 01:34:12;;;;;;;;;42.50;35.50;;;;;3.35;55.23;101632.44;4963155;28;45629;-79
2023/12/03 01:36:37;;;;;;;;;37.33;36.33;;;;;3.44;55.45;101652.19;4958252;28;45411;-78
2023/12/03 01:39:05;;;;;;;;;41.67;36.33;;;;;3.08;55.37;101594.41;4940787;28;45808;-76
2023/12/03 01:41:31;;;;;;;;;44.00;36.33;;;;;3.43;55.24;101656.59;4940957;28;45487;-78
2023/12/03 01:43:56;;;;;;;;;43.67;35.33;;;;;2.97;55.91;101587.88;4958082;28;46482;-78
2023/12/03 01:46:22;;;;;;;;;32.67;30.00;;;;;3.45;55.77;101662.63;4957763;28;45690;-75
2023/12/03 01:48:49;;;;;;;;;38.67;32.33;;;;;3.23;55.18;101635.69;4958156;28;45484;-77
2023/12/03 01:51:15;;;;;;;;;42.67;34.00;;;;;3.45;55.78;101664.41;4957896;28;45539;-76
2023/12/03 01:53:43;;;;;;;;;40.67;31.67;;;;;3.38;54.89;101647.19;4957655;28;45404;-78
2023/12/03 01:56:10;;;;;;;;;39.67;36.33;;;;;3.41;54.94;101654.97;4957817;28;45369;-77
2023/12/03 01:58:36;;;;;;;;;32.67;26.67;;;;;3.21;55.26;101625.25;4957795;28;45496;-77
2023/12/03 02:01:02;;;;;;;;;36.33;30.00;;;;;3.30;55.07;101645.81;4958385;28;45517;-77
2023/12/03 02:03:28;;;;;;;;;36.00;30.33;;;;;2.86;55.24;101570.97;4951321;28;46357;-78
2023/12/03 02:06:09;;;;;;;;;35.67;31.33;;;;;2.88;55.35;101569.94;4938174;28;45402;-78
2023/12/03 02:08:34;;;;;;;;;43.33;37.00;;;;;3.22;55.08;101632.22;4938407;28;45313;-77
2023/12/03 02:11:02;;;;;;;;;33.67;32.67;;;;;3.10;54.87;101606.53;4938146;28;45418;-77
2023/12/03 02:13:30;;;;;;;;;34.67;31.33;;;;;3.37;54.70;101654.25;4938455;28;46158;-77
2023/12/03 02:15:56;;;;;;;;;44.00;36.33;;;;;3.36;55.47;101653.41;4939172;28;45815;-77
2023/12/03 02:18:21;;;;;;;;;50.00;34.00;;;;;3.20;55.22;101622.69;4940269;28;45478;-76
2023/12/03 02:20:47;;;;;;;;;52.50;39.50;;;;;3.30;55.29;101647.59;4939200;28;45219;-76
2023/12/03 02:23:13;;;;;;;;;37.33;33.00;;;;;3.28;54.89;101647.66;4938264;28;46150;-76
2023/12/03 02:25:39;;;;;;;;;40.00;35.00;;;;;3.31;55.16;101644.88;4937869;28;45460;-77
2023/12/03 02:28:04;;;;;;;;;40.33;26.67;;;;;3.17;55.50;101622.84;4939078;28;45534;-77
2023/12/03 02:30:30;;;;;;;;;34.00;29.67;;;;;3.33;55.11;101650.91;4922207;28;45525;-80
2023/12/03 02:32:55;;;;;;;;;39.67;31.00;;;;;3.18;56.01;101614.88;4938882;28;46069;-75
2023/12/03 02:35:20;;;;;;;;;41.75;36.50;;;;;3.30;56.12;101634.47;4938392;28;45448;-74
2023/12/03 02:37:45;;;;;;;;;52.00;41.00;;;;;3.23;55.50;101627.81;4938035;28;45353;-75
2023/12/03 02:40:11;;;;;;;;;46.25;39.00;;;;;3.30;55.55;101645.81;4937915;28;45368;-76
2023/12/03 02:42:36;;;;;;;;;38.67;36.00;;;;;3.33;56.03;101650.91;4937762;28;45442;-75
2023/12/03 02:45:03;;;;;;;;;50.00;35.33;;;;;3.13;56.17;101619.50;4937402;28;45402;-77
2023/12/03 02:47:28;;;;;;;;;46.25;38.25;;;;;3.05;55.67;101604.13;4947735;28;45622;-76
2023/12/03 02:49:53;;;;;;;;;44.33;35.00;;;;;2.93;56.74;101588.97;4957543;28;45500;-77
2023/12/03 02:52:19;;;;;;;;;39.67;36.00;;;;;3.28;56.37;101642.41;4956911;28;46168;-76
2023/12/03 02:54:44;;;;;;;;;37.00;32.67;;;;;3.28;55.83;101636.31;4956795;28;45383;-76
2023/12/03 02:57:09;;;;;;;;;33.67;29.33;;;;;3.14;56.39;101618.59;4956840;28;45784;-77
2023/12/03 02:59:35;;;;;;;;;35.33;27.67;;;;;2.99;55.63;101599.16;4957220;28;45511;-77
2023/12/03 03:02:00;;;;;;;;;32.67;27.00;;;;;3.12;56.04;101628.31;4956583;28;45360;-79
2023/12/03 03:04:25;;;;;;;;;40.00;33.67;;;;;3.04;55.39;101625.22;4955691;28;45366;-78
2023/12/03 03:06:51;;;;;;;;;30.67;27.00;;;;;2.47;55.75;101523.84;4956676;28;45596;-77
2023/12/03 03:09:16;;;;;;;;;49.67;32.67;;;;;2.85;56.05;101590.28;4956752;28;45445;-77
2023/12/03 03:11:41;;;;;;;;;35.67;24.00;;;;;2.91;56.63;101597.84;4940831;28;46503;-78
2023/12/03 03:14:07;;;;;;;;;33.67;31.00;;;;;2.75;56.28;101576.72;4958717;28;45223;-77
2023/12/03 03:16:32;;;;;;;;;39.33;30.67;;;;;2.98;56.24;101612.38;4958386;28;45442;-77
2023/12/03 03:18:57;;;;;;;;;30.67;28.67;;;;;3.02;56.29;101620.06;4959527;28;45589;-77
2023/12/03 03:21:23;;;;;;;;;35.67;29.33;;;;;3.14;55.89;101629.09;4961643;28;46024;-77
2023/12/03 03:23:48;;;;;;;;;39.00;25.67;;;;;2.97;55.96;101610.66;4959005;28;45360;-77
2023/12/03 03:26:13;;;;;;;;;41.67;31.33;;;;;2.93;55.89;101598.63;4938652;28;45619;-77
2023/12/03 03:28:39;;;;;;;;;38.00;30.67;;;;;3.21;55.46;101648.91;4956985;28;45436;-77
2023/12/03 03:31:04;;;;;;;;;37.67;35.33;;;;;3.12;55.94;101623.06;4956661;28;45312;-76
2023/12/03 03:33:30;;;;;;;;;28.33;23.67;;;;;3.10;55.58;101630.19;4950370;28;45381;-77
2023/12/03 03:35:55;;;;;;;;;33.67;29.67;;;;;3.24;55.97;101654.00;4937001;28;45337;-79
2023/12/03 03:38:21;;;;;;;;;31.00;27.67;;;;;3.25;55.96;101652.22;4938390;28;45508;-77
2023/12/03 03:40:47;;;;;;;;;37.67;31.67;;;;;3.02;55.76;101613.94;4936893;28;46138;-77
2023/12/03 03:43:13;;;;;;;;;31.67;29.33;;;;;3.05;55.81;101606.75;4937420;28;45449;-76
2023/12/03 03:45:39;;;;;;;;;29.67;28.67;;;;;3.17;55.18;101631.56;4936899;28;45297;-77
2023/12/03 03:48:04;;;;;;;;;36.00;29.00;;;;;3.32;55.50;101651.84;4936997;28;45489;-77
2023/12/03 03:50:29;;;;;;;;;31.67;27.67;;;;;3.30;55.64;101637.09;4935972;28;45465;-76
2023/12/03 03:52:55;;;;;;;;;35.00;31.33;;;;;3.42;56.01;101647.00;4919168;28;45728;-78
2023/12/03 03:55:20;;;;;;;;;34.33;30.67;;;;;3.37;55.72;101633.22;4936386;28;47429;-77
2023/12/03 03:57:45;;;;;;;;;38.33;29.67;;;;;3.43;55.77;101634.72;4937056;28;45251;-78
2023/12/03 04:00:11;;;;;;;;;34.00;29.00;;;;;3.41;55.66;101641.81;4937078;28;46013;-76
2023/12/03 04:02:36;;;;;;;;;31.00;29.00;;;;;3.10;56.04;101584.66;4936691;28;45843;-77
2023/12/03 04:05:02;;;;;;;;;34.00;29.00;;;;;3.30;55.74;101624.78;4937828;28;46009;-79
2023/12/03 04:07:28;;;;;;;;;37.33;30.67;;;;;3.43;55.29;101640.81;4937807;28;45564;-77
2023/12/03 04:09:53;;;;;;;;;30.00;27.67;;;;;3.17;55.50;101594.78;4937048;28;45344;-78
2023/12/03 04:12:19;;;;;;;;;44.00;30.00;;;;;3.36;55.66;101629.72;4936687;28;45362;-79
2023/12/03 04:14:44;;;;;;;;;36.00;30.67;;;;;3.18;55.24;101582.50;4936994;28;45684;-78
2023/12/03 04:17:09;;;;;;;;;39.00;32.67;;;;;3.24;55.93;101603.22;4936918;28;45353;-78
2023/12/03 04:19:35;;;;;;;;;30.00;26.67;;;;;3.39;56.08;101622.63;4938206;28;45665;-77
2023/12/03 04:22:01;;;;;;;;;33.33;29.33;;;;;3.39;55.73;101627.88;4949918;28;46421;-78
2023/12/03 04:24:26;;;;;;;;;41.00;35.33;;;;;3.41;55.83;101626.06;4936200;28;45546;-78
2023/12/03 04:26:51;;;;;;;;;37.33;32.67;;;;;3.45;54.85;101638.09;4936304;28;45454;-77
2023/12/03 04:29:17;;;;;;;;;36.00;31.33;;;;;3.39;55.61;101635.75;4936373;28;46163;-78
2023/12/03 04:31:42;;;;;;;;;30.33;28.33;;;;;3.21;55.38;101617.38;4935976;28;45629;-78
2023/12/03 04:34:08;;;;;;;;;38.00;32.33;;;;;3.37;56.51;101648.97;4946194;28;45454;-78
2023/12/03 04:36:33;;;;;;;;;37.67;29.33;;;;;3.20;55.41;101633.19;4955512;28;45370;-76
2023/12/03 04:38:58;;;;;;;;;43.00;30.67;;;;;3.04;56.31;101622.59;4955759;28;45590;-76
2023/12/03 04:41:24;;;;;;;;;45.67;31.00;;;;;3.10;56.58;101622.28;4955341;28;45694;-77
2023/12/03 04:43:49;;;;;;;;;41.00;34.67;;;;;3.18;56.49;101624.53;4955484;28;45445;-76
2023/12/03 04:46:14;;;;;;;;;44.33;36.33;;;;;3.24;56.30;101632.13;4955334;28;45377;-77
2023/12/03 04:48:41;;;;;;;;;40.00;35.00;;;;;3.15;56.09;101615.03;4955823;28;45457;-76
2023/12/03 04:51:07;;;;;;;;;38.67;33.00;;;;;3.23;55.78;101631.28;4955553;28;45407;-78
2023/12/03 04:53:33;;;;;;;;;38.33;33.33;;;;;3.09;56.17;101609.22;4955966;28;45313;-78
2023/12/03 04:55:58;;;;;;;;;39.00;33.33;;;;;3.04;56.57;101601.59;4956298;28;45572;-77
2023/12/03 04:58:24;;;;;;;;;34.33;32.00;;;;;3.07;56.92;101605.84;4955355;28;46309;-78
2023/12/03 05:00:49;;;;;;;;;39.00;33.33;;;;;3.07;56.75;101605.84;4955189;28;45274;-75
2023/12/03 05:03:14;;;;;;;;;46.00;33.67;;;;;2.83;57.17;101592.97;4956809;28;45283;-77
2023/12/03 05:05:40;;;;;;;;;52.33;36.00;;;;;2.94;56.93;101608.19;4959715;28;45776;-76
2023/12/03 05:08:06;;;;;;;;;33.00;25.00;;;;;2.95;57.46;101613.38;4958856;28;45481;-78
2023/12/03 05:10:31;;;;;;;;;44.33;32.67;;;;;2.91;57.04;101603.09;4958575;28;45338;-78
2023/12/03 05:12:56;;;;;;;;;35.67;26.00;;;;;2.98;57.40;101607.13;4958731;28;45554;-79
2023/12/03 05:15:22;;;;;;;;;39.67;35.33;;;;;3.02;56.80;101608.69;4958591;28;45285;-76
2023/12/03 05:17:48;;;;;;;;;47.33;33.33;;;;;2.70;57.16;101555.09;4940572;28;45474;-78
2023/12/03 05:20:13;;;;;;;;;33.67;32.67;;;;;2.97;57.11;101600.16;4958633;28;45495;-78
2023/12/03 05:22:38;;;;;;;;;44.67;38.67;;;;;2.77;57.56;101574.00;4958529;28;45432;-75
2023/12/03 05:25:05;;;;;;;;;44.00;31.00;;;;;2.37;57.80;101505.88;4958945;28;45607;-79
2023/12/03 05:27:30;;;;;;;;;36.67;31.67;;;;;2.88;57.74;101584.88;4957367;28;45467;-76
2023/12/03 05:29:56;;;;;;;;;37.33;33.33;;;;;2.96;57.22;101587.94;4958435;28;45583;-77
2023/12/03 05:32:21;;;;;;;;;52.00;39.67;;;;;2.99;57.68;101598.31;4958168;28;45410;-78
2023/12/03 05:34:47;;;;;;;;;38.67;27.33;;;;;2.90;57.46;101594.38;4940676;28;45525;-77
2023/12/03 05:37:13;;;;;;;;;45.00;36.67;;;;;2.98;57.20;101588.72;4957745;28;45477;-78
2023/12/03 05:39:39;;;;;;;;;36.33;29.00;;;;;3.03;56.72;101599.88;4958736;28;45276;-76
2023/12/03 05:42:04;;;;;;;;;40.67;36.67;;;;;3.01;56.86;101599.97;4959636;28;45493;-75
2023/12/03 05:44:30;;;;;;;;;43.00;36.00;;;;;3.00;57.10;101586.88;4959205;28;45351;-75
2023/12/03 05:46:55;;;;;;;;;40.00;34.67;;;;;3.02;57.28;101587.69;4959469;28;45497;-75
2023/12/03 05:49:20;;;;;;;;;43.67;33.00;;;;;3.01;57.11;101581.56;4959063;28;45346;-78
2023/12/03 05:51:46;;;;;;;;;41.00;34.33;;;;;3.04;57.83;101585.81;4959591;28;45434;-78
2023/12/03 05:54:11;;;;;;;;;43.33;34.33;;;;;2.97;57.01;101574.75;4940720;28;45534;-78
2023/12/03 05:56:37;;;;;;;;;37.67;33.00;;;;;3.17;57.07;101592.16;4959833;28;45458;-77
2023/12/03 05:59:02;;;;;;;;;36.00;34.00;;;;;3.21;56.70;101601.63;4931728;28;47098;-76
2023/12/03 06:01:27;;;;;;;;;39.33;26.67;;;;;2.55;57.23;101504.16;4939543;28;45481;-76
2023/12/03 06:03:53;;;;;;;;;43.33;34.67;;;;;3.13;57.01;101601.13;4938946;28;45551;-77
2023/12/03 06:06:18;;;;;;;;;46.67;33.00;;;;;3.17;57.57;101602.66;4938515;28;46004;-77
2023/12/03 06:08:44;;;;;;;;;38.00;31.33;;;;;3.21;57.30;101598.97;4938331;28;45440;-76
2023/12/03 06:11:10;;;;;;;;;42.33;32.00;;;;;3.14;57.30;101575.69;4938325;28;45486;-78
2023/12/03 06:13:35;;;;;;;;;40.33;30.67;;;;;3.22;56.85;101587.53;4939399;28;45435;-77
2023/12/03 06:16:01;;;;;;;;;39.33;31.00;;;;;3.06;57.13;101557.69;4940712;28;46135;-78
2023/12/03 06:18:26;;;;;;;;;38.00;32.33;;;;;3.26;56.88;101583.81;4940348;28;45319;-76
2023/12/03 06:20:52;;;;;;;;;34.33;33.00;;;;;3.33;56.72;101579.97;4939331;28;48184;-78
2023/12/03 06:23:18;;;;;;;;;42.00;30.00;;;;;3.09;56.47;101530.41;4948580;28;45306;-77
2023/12/03 06:25:43;;;;;;;;;34.33;29.67;;;;;2.73;56.93;101491.91;4946533;28;46552;-79
2023/12/03 06:28:09;;;;;;;;;42.00;36.00;;;;;3.02;56.83;101537.75;4950170;28;44729;-78
2023/12/03 06:30:35;;;;;;;;;37.33;32.67;;;;;3.10;57.52;101553.97;4949890;28;45307;-78
2023/12/03 06:33:00;;;;;;;;;36.00;28.33;;;;;3.08;57.61;101545.34;4940185;28;45762;-78
2023/12/03 06:35:25;;;;;;;;;32.67;28.00;;;;;3.22;57.63;101579.66;4940177;28;45998;-77
2023/12/03 06:37:51;;;;;;;;;40.67;33.33;;;;;2.57;56.91;101464.72;4957413;28;45362;-77
2023/12/03 06:40:16;;;;;;;;;34.33;30.00;;;;;3.20;57.55;101575.38;4957455;28;45413;-77
2023/12/03 06:42:42;;;;;;;;;37.00;31.33;;;;;3.25;57.43;101574.25;4957459;28;45448;-79
2023/12/03 06:45:07;;;;;;;;;29.00;26.00;;;;;3.29;56.99;101567.06;4956934;28;45512;-76
2023/12/03 06:47:33;;;;;;;;;35.00;30.33;;;;;3.20;57.50;101568.34;4956957;28;45520;-76
2023/12/03 06:49:58;;;;;;;;;37.00;29.67;;;;;3.30;57.15;101582.75;4957192;28;45378;-78
2023/12/03 06:52:23;;;;;;;;;39.33;34.00;;;;;3.36;56.61;101592.09;4957447;28;45403;-78
2023/12/03 06:54:49;;;;;;;;;29.67;29.33;;;;;3.31;57.58;101583.59;4957327;28;46180;-80
2023/12/03 06:57:14;;;;;;;;;37.67;32.33;;;;;3.03;57.14;101545.56;4956869;28;45382;-79
2023/12/03 06:59:40;;;;;;;;;39.33;29.00;;;;;3.07;57.56;101559.41;4956267;28;45401;-78
2023/12/03 07:02:05;;;;;;;;;39.00;31.33;;;;;3.24;57.52;101583.06;4948546;28;45357;-78
2023/12/03 07:04:32;;;;;;;;;30.33;23.33;;;;;3.28;57.73;101589.84;4956192;28;45374;-79
2023/12/03 07:06:59;;;;;;;;;43.00;34.67;;;;;3.33;57.26;101584.38;4949347;28;45986;-78
2023/12/03 07:09:25;;;;;;;;;33.00;27.33;;;;;3.32;56.76;101585.28;4948427;28;45514;-78
2023/12/03 07:11:50;;;;;;;;;42.00;32.33;;;;;3.09;57.01;101547.03;4951053;28;45513;-78
2023/12/03 07:14:15;;;;;;;;;45.00;31.33;;;;;3.22;57.17;101563.03;4945602;28;47430;-78
2023/12/03 07:16:41;;;;;;;;;34.33;25.00;;;;;3.38;56.91;101589.38;4951895;28;46799;-77
2023/12/03 07:19:06;;;;;;;;;35.33;33.67;;;;;3.20;56.36;101565.72;4944346;28;47043;-74
2023/12/03 07:21:31;;;;;;;;;26.50;21.00;;;;;3.16;57.14;101572.06;4948776;28;45476;-76
2023/12/03 07:23:56;;;;;;;;;29.33;25.67;;;;;3.25;57.46;101586.53;4957443;28;45588;-77
2023/12/03 07:26:22;;;;;;;;;39.00;29.33;;;;;3.13;57.42;101552.97;4948066;28;46940;-77
2023/12/03 07:28:48;;;;;;;;;30.33;28.33;;;;;3.21;56.77;101577.13;4950262;28;45385;-79
2023/12/03 07:31:13;;;;;;;;;32.33;30.33;;;;;2.64;57.39;101487.97;4957316;28;45539;-78
2023/12/03 07:33:38;;;;;;;;;27.00;22.33;;;;;3.05;57.55;101550.75;4937162;28;45773;-76
2023/12/03 07:36:04;;;;;;;;;35.00;29.00;;;;;3.27;57.06;101597.81;4944383;28;45321;-79
2023/12/03 07:38:30;;;;;;;;;35.00;28.33;;;;;3.24;57.12;101593.56;4953231;28;45513;-76
2023/12/03 07:40:56;;;;;;;;;36.67;29.67;;;;;3.23;56.87;101591.03;4944790;28;46021;-77
2023/12/03 07:43:21;;;;;;;;;33.33;29.33;;;;;3.11;57.42;101581.97;4937134;28;45446;-77
2023/12/03 07:45:47;;;;;;;;;36.67;27.67;;;;;3.08;56.95;101568.97;4940914;28;45486;-75
2023/12/03 07:48:12;;;;;;;;;39.00;33.33;;;;;3.14;57.15;101579.16;4948391;28;45327;-77
2023/12/03 07:50:37;;;;;;;;;40.33;33.33;;;;;3.26;57.02;101594.34;4955762;28;45371;-78
2023/12/03 07:53:03;;;;;;;;;26.33;25.67;;;;;3.10;56.76;101567.13;4942756;28;45484;-77
2023/12/03 07:55:29;;;;;;;;;38.00;28.67;;;;;3.20;56.94;101564.88;4944650;28;45386;-79
2023/12/03 07:57:54;;;;;;;;;37.33;29.00;;;;;3.35;57.04;101582.50;4947879;28;45433;-77
2023/12/03 08:00:19;;;;;;;;;32.33;31.00;;;;;2.86;57.44;101486.91;4948457;28;45275;-78
2023/12/03 08:02:45;;;;;;;;;37.00;32.33;;;;;3.27;56.60;101561.88;4948173;28;45544;-79
2023/12/03 08:05:10;;;;;;;;;29.33;24.00;;;;;3.44;56.71;101579.44;4956775;28;45606;-78
2023/12/03 08:07:36;;;;;;;;;30.33;29.00;;;;;3.44;56.58;101589.09;4947496;28;45464;-80
2023/12/03 08:10:02;;;;;;;;;31.33;28.00;;;;;3.19;56.81;101524.59;4946213;28;45322;-78
2023/12/03 08:12:28;;;;;;;;;28.33;25.33;;;;;3.35;57.40;101553.59;4945816;28;45532;-78
2023/12/03 08:14:54;;;;;;;;;39.33;30.33;;;;;2.85;57.30;101466.84;4953071;28;45472;-77
2023/12/03 08:17:20;;;;;;;;;40.33;27.00;;;;;3.36;56.53;101542.16;4950753;28;45467;-78
2023/12/03 08:19:45;;;;;;;;;35.33;33.67;;;;;3.52;57.68;101561.47;4934737;28;45512;-79
2023/12/03 08:22:10;;;;;;;;;47.00;32.00;;;;;3.36;57.61;101540.38;4962848;28;46185;-79
2023/12/03 08:24:35;;;;;;;;;36.67;29.67;;;;;2.96;57.30;101475.88;4965244;28;44826;-76
2023/12/03 08:27:01;;;;;;;;;32.67;25.67;;;;;3.41;57.72;101555.09;4963027;28;45259;-79
2023/12/03 08:29:26;;;;;;;;;40.33;29.67;;;;;3.30;57.92;101543.31;4965190;28;45223;-78
2023/12/03 08:31:52;;;;;;;;;32.67;24.33;;;;;3.44;57.72;101573.31;4966182;28;45487;-77
2023/12/03 08:34:17;;;;;;;;;43.67;36.00;;;;;3.31;57.44;101542.41;4959428;28;45296;-77
2023/12/03 08:36:43;;;;;;;;;32.00;27.00;;;;;3.46;56.68;101555.69;4969835;28;45411;-79
2023/12/03 08:39:09;;;;;;;;;32.00;27.33;;;;;3.51;56.97;101556.28;4964086;28;45156;-77
2023/12/03 08:41:37;;;;;;;;;31.67;26.33;;;;;3.56;57.80;101552.50;4971607;28;46210;-77
2023/12/03 08:44:03;;;;;;;;;33.67;26.67;;;;;3.55;57.31;101535.03;4973356;28;45179;-78
2023/12/03 08:46:29;;;;;;;;;30.67;24.00;;;;;3.72;57.17;101546.44;4969388;28;45137;-76
2023/12/03 08:48:56;;;;;;;;;38.00;34.33;;;;;3.28;57.05;101463.72;4951758;28;45213;-77
2023/12/03 08:51:21;;;;;;;;;44.67;30.33;;;;;3.08;56.57;101418.38;4960732;28;46214;-76
2023/12/03 08:53:47;;;;;;;;;42.33;26.67;;;;;3.87;55.77;101545.66;4962161;28;45509;-78
2023/12/03 08:56:12;;;;;;;;;31.67;26.00;;;;;3.64;55.74;101510.03;4944431;28;45209;-79
2023/12/03 08:58:41;;;;;;;;;37.67;29.67;;;;;3.88;56.01;101535.03;4960525;28;45278;-81
2023/12/03 09:01:10;;;;;;;;;30.00;26.67;;;;;3.91;56.21;101532.25;4970210;28;45396;-77
2023/12/03 09:03:37;;;;;;;;;26.67;26.00;;;;;3.88;56.16;101542.06;4967956;28;45593;-78
2023/12/03 09:06:03;;;;;;;;;39.33;31.00;;;;;3.89;55.86;101531.47;4963299;28;45171;-79
2023/12/03 09:08:28;;;;;;;;;33.00;28.33;;;;;3.74;55.33;101500.72;4952645;28;45724;-78
2023/12/03 09:10:54;;;;;;;;;31.67;27.67;;;;;4.01;56.31;101539.66;4952440;28;45258;-77
2023/12/03 09:13:19;;;;;;;;;32.00;27.33;;;;;4.12;55.86;101539.91;4961172;28;45468;-80
2023/12/03 09:15:44;;;;;;;;;34.00;28.67;;;;;3.89;54.80;101496.44;4934189;28;45812;-81
2023/12/03 09:18:10;;;;;;;;;39.00;33.33;;;;;4.12;55.07;101546.03;4969304;28;45269;-79
2023/12/03 09:20:35;;;;;;;;;33.33;28.33;;;;;3.95;55.20;101510.09;4969038;28;45616;-79
2023/12/03 09:23:00;;;;;;;;;41.33;26.67;;;;;4.16;55.29;101534.38;4963597;28;45011;-78
2023/12/03 09:25:26;;;;;;;;;32.33;26.67;;;;;4.13;54.97;101537.19;4955677;28;45545;-77
2023/12/03 09:27:51;;;;;;;;;34.67;27.33;;;;;4.04;54.86;101528.97;4964707;28;45295;-76
2023/12/03 09:30:17;;;;;;;;;33.33;25.67;;;;;3.57;55.17;101484.97;4969895;28;49344;-79
2023/12/03 09:32:42;;;;;;;;;34.33;30.00;;;;;3.72;55.73;101514.88;4967203;28;45194;-78
2023/12/03 09:35:08;;;;;;;;;35.00;27.33;;;;;3.60;55.52;101487.44;4961685;28;45035;-76
2023/12/03 09:37:33;;;;;;;;;32.00;27.00;;;;;3.78;55.75;101504.88;4959496;28;45346;-76
2023/12/03 09:39:59;;;;;;;;;29.33;25.00;;;;;3.96;55.56;101532.84;4939438;28;45479;-77
2023/12/03 09:42:26;;;;;;;;;27.67;24.33;;;;;4.02;55.46;101528.19;4938010;28;45424;-78
2023/12/03 09:45:03;;;;;;;;;34.67;27.67;;;;;3.89;54.96;101512.22;4953211;28;45337;-78
2023/12/03 09:47:33;;;;;;;;;30.33;23.67;;;;;3.70;55.25;101474.69;4950150;28;45505;-77
2023/12/03 09:50:00;;;;;;;;;25.67;25.00;;;;;3.88;54.88;101479.78;4961521;28;46248;-76
2023/12/03 09:52:28;;;;;;;;;33.00;27.00;;;;;4.09;54.43;101513.75;4950361;28;45328;-79
2023/12/03 09:54:58;;;;;;;;;26.33;21.67;;;;;4.23;54.26;101519.13;4969266;28;45193;-80
2023/12/03 09:57:25;;;;;;;;;30.33;22.33;;;;;4.37;54.33;101527.09;4961584;28;45543;-80
2023/12/03 09:59:56;;;;;;;;;33.00;26.00;;;;;4.57;53.87;101552.31;4958654;28;46196;-77
2023/12/03 10:02:26;;;;;;;;;33.00;29.00;;;;;4.56;53.77;101547.97;4937676;28;45996;-75
2023/12/03 10:04:51;;;;;;;;;27.67;19.67;;;;;4.44;53.83;101531.09;4969393;28;44840;-79
2023/12/03 10:07:19;;;;;;;;;29.00;22.67;;;;;4.55;52.92;101539.22;4956501;28;45095;-79
2023/12/03 10:09:47;;;;;;;;;24.67;21.33;;;;;4.56;53.41;101526.91;4938446;28;47232;-74
2023/12/03 10:12:16;;;;;;;;;29.33;25.33;;;;;3.55;53.04;101365.91;4957960;28;45517;-78
2023/12/03 10:14:42;;;;;;;;;25.67;24.00;;;;;4.37;52.92;101505.19;4948989;28;45259;-79
2023/12/03 10:17:08;;;;;;;;;32.67;25.67;;;;;4.41;53.18;101520.75;4950428;28;45360;-75
2023/12/03 10:19:34;;;;;;;;;28.67;22.67;;;;;4.45;52.56;101531.94;4957375;28;46126;-78
2023/12/03 10:21:59;;;;;;;;;24.67;20.33;;;;;3.62;52.98;101391.81;4945841;28;45355;-78
2023/12/03 10:24:25;;;;;;;;;25.33;22.00;;;;;3.85;53.16;101432.63;4956358;28;45287;-79
2023/12/03 10:26:52;;;;;;;;;29.33;25.00;;;;;4.54;52.79;101521.72;4947697;28;45434;-78
2023/12/03 10:29:23;;;;;;;;;25.00;23.33;;;;;4.23;52.62;101455.97;4953839;28;46072;-77
2023/12/03 10:31:49;;;;;;;;;34.33;27.33;;;;;4.71;52.99;101517.31;4939763;28;45308;-78
2023/12/03 10:34:19;;;;;;;;;29.00;22.33;;;;;4.33;53.01;101451.88;4958954;28;45719;-78
2023/12/03 10:36:48;;;;;;;;;32.33;25.33;;;;;4.69;52.56;101490.22;4948818;28;45607;-79
2023/12/03 10:39:17;;;;;;;;;25.00;23.67;;;;;4.52;52.21;101457.78;4956971;28;45524;-80
2023/12/03 10:41:46;;;;;;;;;32.67;28.67;;;;;4.75;51.56;101464.34;4948634;28;45577;-78
2023/12/03 10:44:19;;;;;;;;;28.67;26.67;;;;;4.94;51.27;101493.13;4944728;28;45685;-78
2023/12/03 10:46:45;;;;;;;;;27.00;25.00;;;;;4.92;52.37;101496.78;4961826;28;45721;-78
2023/12/03 10:49:11;;;;;;;;;23.33;22.67;;;;;4.82;52.30;101457.81;4945563;28;46885;-80
2023/12/03 10:51:40;;;;;;;;;23.00;21.00;;;;;5.03;51.58;101482.06;4964296;28;44971;-77
2023/12/03 10:54:05;;;;;;;;;31.33;24.00;;;;;5.03;51.30;101475.94;4971516;28;45095;-77
2023/12/03 10:56:32;;;;;;;;;18.33;18.00;;;;;4.98;51.27;101478.81;4970096;28;45284;-78
2023/12/03 10:59:07;;;;;;;;;30.33;22.67;;;;;4.70;51.18;101445.34;4966483;28;45890;-79
2023/12/03 11:01:37;;;;;;;;;27.67;22.00;;;;;4.81;51.67;101456.13;4975361;28;44948;-77
2023/12/03 11:04:16;;;;;;;;;25.00;23.33;;;;;4.86;51.87;101445.31;4977471;28;44991;-78
2023/12/03 11:06:45;;;;;;;;;30.67;24.67;;;;;4.82;51.78;101443.78;4969012;28;45391;-79
2023/12/03 11:09:12;;;;;;;;;30.00;23.67;;;;;4.75;51.25;101418.72;4963744;28;45966;-78
2023/12/03 11:11:38;;;;;;;;;26.33;23.33;;;;;5.08;52.08;101447.50;4964049;28;45116;-79